Terminal Aerodrome Forecast
Issued by NWS Twin Cities, MN

Home | Current Version | Previous Version | Text Only | Print | Product List | Glossary Off
Versions: 1 2 3 4 5 6 7 8 9 10 11 12 13 14 15 16

000
FTUS43 KMPX 132300
TAFEAU
TAF
KEAU 132335Z 1400/1424 01014G22KT P6SM -RA SCT012 OVC030
      TEMPO 1400/1403 2SM -RASN BR OVC012
     FM140300 36017G24KT 1 1/2SM -SN BKN012 OVC020
     FM140600 35018G24KT 5SM -SN BKN020 OVC040
     FM140800 34017G23KT P6SM OVC030
     FM141600 34016G24KT P6SM BKN040=

USA.gov is the U.S. government's official web portal to all federal, state and local government web resources and services.